sensor_id;sensor_type;location;lat;lon;timestamp;temperature;humidity
38746;DHT22;24488;0.000;0.000;2024-03-25T00:01:59;23.70;40.70
38746;DHT22;24488;0.000;0.000;2024-03-25T00:04:25;23.70;40.30
38746;DHT22;24488;0.000;0.000;2024-03-25T00:06:50;23.70;40.80
38746;DHT22;24488;0.000;0.000;2024-03-25T00:09:16;23.60;40.70
38746;DHT22;24488;0.000;0.000;2024-03-25T00:11:42;23.70;40.80
38746;DHT22;24488;0.000;0.000;2024-03-25T00:14:08;23.70;40.70
38746;DHT22;24488;0.000;0.000;2024-03-25T00:16:34;23.70;40.20
38746;DHT22;24488;0.000;0.000;2024-03-25T00:18:59;23.70;40.70
38746;DHT22;24488;0.000;0.000;2024-03-25T00:21:25;23.70;40.60
38746;DHT22;24488;0.000;0.000;2024-03-25T00:23:51;23.70;40.70
38746;DHT22;24488;0.000;0.000;2024-03-25T00:26:16;23.70;40.20
38746;DHT22;24488;0.000;0.000;2024-03-25T00:28:42;23.70;40.60
38746;DHT22;24488;0.000;0.000;2024-03-25T00:31:09;23.70;40.60
38746;DHT22;24488;0.000;0.000;2024-03-25T00:33:34;23.70;40.70
38746;DHT22;24488;0.000;0.000;2024-03-25T00:36:00;23.70;40.20
38746;DHT22;24488;0.000;0.000;2024-03-25T00:38:26;23.70;40.60
38746;DHT22;24488;0.000;0.000;2024-03-25T00:40:51;23.70;40.70
38746;DHT22;24488;0.000;0.000;2024-03-25T00:43:17;23.70;40.70
38746;DHT22;24488;0.000;0.000;2024-03-25T00:45:43;23.70;40.20
38746;DHT22;24488;0.000;0.000;2024-03-25T00:48:08;23.70;40.70
38746;DHT22;24488;0.000;0.000;2024-03-25T00:50:34;23.60;40.70
38746;DHT22;24488;0.000;0.000;2024-03-25T00:52:59;23.70;40.70
38746;DHT22;24488;0.000;0.000;2024-03-25T00:55:25;23.70;40.20
38746;DHT22;24488;0.000;0.000;2024-03-25T00:57:50;23.70;40.70
38746;DHT22;24488;0.000;0.000;2024-03-25T01:00:16;23.60;40.60
38746;DHT22;24488;0.000;0.000;2024-03-25T01:02:42;23.60;40.60
38746;DHT22;24488;0.000;0.000;2024-03-25T01:05:09;23.70;40.20
38746;DHT22;24488;0.000;0.000;2024-03-25T01:07:34;23.70;40.60
38746;DHT22;24488;0.000;0.000;2024-03-25T01:10:00;23.60;40.60
38746;DHT22;24488;0.000;0.000;2024-03-25T01:12:26;23.60;40.60
38746;DHT22;24488;0.000;0.000;2024-03-25T01:14:52;23.60;40.10
38746;DHT22;24488;0.000;0.000;2024-03-25T01:17:18;23.60;40.60
38746;DHT22;24488;0.000;0.000;2024-03-25T01:19:43;23.60;40.60
38746;DHT22;24488;0.000;0.000;2024-03-25T01:22:09;23.60;40.70
38746;DHT22;24488;0.000;0.000;2024-03-25T01:24:34;23.50;40.20
38746;DHT22;24488;0.000;0.000;2024-03-25T01:27:00;23.60;40.80
38746;DHT22;24488;0.000;0.000;2024-03-25T01:29:26;23.60;40.80
38746;DHT22;24488;0.000;0.000;2024-03-25T01:31:51;23.60;40.70
38746;DHT22;24488;0.000;0.000;2024-03-25T01:34:17;23.60;40.70
38746;DHT22;24488;0.000;0.000;2024-03-25T01:36:42;23.60;40.20
38746;DHT22;24488;0.000;0.000;2024-03-25T01:39:08;23.60;40.60
38746;DHT22;24488;0.000;0.000;2024-03-25T01:41:34;23.60;40.60
38746;DHT22;24488;0.000;0.000;2024-03-25T01:44:00;23.60;40.60
38746;DHT22;24488;0.000;0.000;2024-03-25T01:46:27;23.60;40.20
38746;DHT22;24488;0.000;0.000;2024-03-25T01:48:53;23.60;40.60
38746;DHT22;24488;0.000;0.000;2024-03-25T01:51:19;23.50;40.60
38746;DHT22;24488;0.000;0.000;2024-03-25T01:53:46;23.60;40.60
38746;DHT22;24488;0.000;0.000;2024-03-25T01:56:13;23.60;40.20
38746;DHT22;24488;0.000;0.000;2024-03-25T01:58:39;23.50;40.70
38746;DHT22;24488;0.000;0.000;2024-03-25T02:01:05;23.50;40.70
38746;DHT22;24488;0.000;0.000;2024-03-25T02:03:30;23.50;40.70
38746;DHT22;24488;0.000;0.000;2024-03-25T02:06:01;23.50;40.30
38746;DHT22;24488;0.000;0.000;2024-03-25T02:08:29;23.50;40.70
38746;DHT22;24488;0.000;0.000;2024-03-25T02:10:56;23.50;40.70
38746;DHT22;24488;0.000;0.000;2024-03-25T02:13:21;23.60;40.70
38746;DHT22;24488;0.000;0.000;2024-03-25T02:15:47;23.50;40.20
38746;DHT22;24488;0.000;0.000;2024-03-25T02:18:19;23.50;40.70
38746;DHT22;24488;0.000;0.000;2024-03-25T02:20:44;23.50;40.70
38746;DHT22;24488;0.000;0.000;2024-03-25T02:23:10;23.50;40.60
38746;DHT22;24488;0.000;0.000;2024-03-25T02:25:38;23.50;40.20
38746;DHT22;24488;0.000;0.000;2024-03-25T02:28:04;23.50;40.70
38746;DHT22;24488;0.000;0.000;2024-03-25T02:30:29;23.50;40.70
38746;DHT22;24488;0.000;0.000;2024-03-25T02:32:55;23.50;40.70
38746;DHT22;24488;0.000;0.000;2024-03-25T02:35:21;23.50;40.20
38746;DHT22;24488;0.000;0.000;2024-03-25T02:37:48;23.50;40.70
38746;DHT22;24488;0.000;0.000;2024-03-25T02:40:15;23.50;40.70
38746;DHT22;24488;0.000;0.000;2024-03-25T02:42:41;23.50;40.70
38746;DHT22;24488;0.000;0.000;2024-03-25T02:45:07;23.50;40.30
38746;DHT22;24488;0.000;0.000;2024-03-25T02:47:33;23.50;40.70
38746;DHT22;24488;0.000;0.000;2024-03-25T02:49:59;23.50;40.80
38746;DHT22;24488;0.000;0.000;2024-03-25T02:52:24;23.50;40.70
38746;DHT22;24488;0.000;0.000;2024-03-25T02:54:50;23.50;40.20
38746;DHT22;24488;0.000;0.000;2024-03-25T02:57:16;23.50;40.70
38746;DHT22;24488;0.000;0.000;2024-03-25T02:59:42;23.50;40.60
38746;DHT22;24488;0.000;0.000;2024-03-25T03:02:07;23.50;40.60
38746;DHT22;24488;0.000;0.000;2024-03-25T03:04:33;23.50;40.20
38746;DHT22;24488;0.000;0.000;2024-03-25T03:06:58;23.50;40.70
38746;DHT22;24488;0.000;0.000;2024-03-25T03:09:24;23.50;40.70
38746;DHT22;24488;0.000;0.000;2024-03-25T03:11:49;23.50;40.70
38746;DHT22;24488;0.000;0.000;2024-03-25T03:14:15;23.50;40.70
38746;DHT22;24488;0.000;0.000;2024-03-25T03:16:42;23.50;40.20
38746;DHT22;24488;0.000;0.000;2024-03-25T03:19:07;23.50;40.70
38746;DHT22;24488;0.000;0.000;2024-03-25T03:21:33;23.50;40.80
38746;DHT22;24488;0.000;0.000;2024-03-25T03:23:58;23.50;40.80
38746;DHT22;24488;0.000;0.000;2024-03-25T03:26:24;23.50;40.20
38746;DHT22;24488;0.000;0.000;2024-03-25T03:28:55;23.50;40.70
38746;DHT22;24488;0.000;0.000;2024-03-25T03:31:21;23.50;40.70
38746;DHT22;24488;0.000;0.000;2024-03-25T03:33:47;23.50;40.70
38746;DHT22;24488;0.000;0.000;2024-03-25T03:36:15;23.50;40.20
38746;DHT22;24488;0.000;0.000;2024-03-25T03:38:41;23.50;40.70
38746;DHT22;24488;0.000;0.000;2024-03-25T03:41:06;23.40;40.60
38746;DHT22;24488;0.000;0.000;2024-03-25T03:43:32;23.50;40.70
38746;DHT22;24488;0.000;0.000;2024-03-25T03:45:57;23.40;40.10
38746;DHT22;24488;0.000;0.000;2024-03-25T03:48:23;23.40;40.60
38746;DHT22;24488;0.000;0.000;2024-03-25T03:50:48;23.40;40.60
38746;DHT22;24488;0.000;0.000;2024-03-25T03:53:14;23.40;40.60
38746;DHT22;24488;0.000;0.000;2024-03-25T03:55:39;23.40;40.20
38746;DHT22;24488;0.000;0.000;2024-03-25T03:58:05;23.40;40.70
38746;DHT22;24488;0.000;0.000;2024-03-25T04:00:34;23.50;40.70
38746;DHT22;24488;0.000;0.000;2024-03-25T04:03:00;23.50;40.70
38746;DHT22;24488;0.000;0.000;2024-03-25T04:05:30;23.50;40.20
38746;DHT22;24488;0.000;0.000;2024-03-25T04:07:55;23.50;40.70
38746;DHT22;24488;0.000;0.000;2024-03-25T04:10:22;23.50;40.70
38746;DHT22;24488;0.000;0.000;2024-03-25T04:12:48;23.50;40.70
38746;DHT22;24488;0.000;0.000;2024-03-25T04:15:14;23.50;40.20
38746;DHT22;24488;0.000;0.000;2024-03-25T04:17:43;23.40;40.60
38746;DHT22;24488;0.000;0.000;2024-03-25T04:20:11;23.50;40.70
38746;DHT22;24488;0.000;0.000;2024-03-25T04:22:37;23.40;40.60
38746;DHT22;24488;0.000;0.000;2024-03-25T04:25:03;23.40;40.20
38746;DHT22;24488;0.000;0.000;2024-03-25T04:27:28;23.40;40.60
38746;DHT22;24488;0.000;0.000;2024-03-25T04:29:54;23.40;40.70
38746;DHT22;24488;0.000;0.000;2024-03-25T04:32:19;23.40;40.70
38746;DHT22;24488;0.000;0.000;2024-03-25T04:34:45;23.40;40.10
38746;DHT22;24488;0.000;0.000;2024-03-25T04:37:10;23.50;40.70
38746;DHT22;24488;0.000;0.000;2024-03-25T04:39:37;23.40;40.60
38746;DHT22;24488;0.000;0.000;2024-03-25T04:42:02;23.40;40.60
38746;DHT22;24488;0.000;0.000;2024-03-25T04:44:28;23.40;40.10
38746;DHT22;24488;0.000;0.000;2024-03-25T04:46:54;23.40;40.60
38746;DHT22;24488;0.000;0.000;2024-03-25T04:49:19;23.40;40.50
38746;DHT22;24488;0.000;0.000;2024-03-25T04:51:45;23.40;40.50
38746;DHT22;24488;0.000;0.000;2024-03-25T04:54:10;23.40;40.60
38746;DHT22;24488;0.000;0.000;2024-03-25T04:56:36;23.40;40.10
38746;DHT22;24488;0.000;0.000;2024-03-25T04:59:01;23.40;40.60
38746;DHT22;24488;0.000;0.000;2024-03-25T05:01:27;23.40;40.60
38746;DHT22;24488;0.000;0.000;2024-03-25T05:03:53;23.40;40.60
38746;DHT22;24488;0.000;0.000;2024-03-25T05:06:19;23.40;40.20
38746;DHT22;24488;0.000;0.000;2024-03-25T05:08:44;23.40;40.60
38746;DHT22;24488;0.000;0.000;2024-03-25T05:11:10;23.40;40.60
38746;DHT22;24488;0.000;0.000;2024-03-25T05:13:36;23.40;40.60
38746;DHT22;24488;0.000;0.000;2024-03-25T05:16:01;23.40;40.10
38746;DHT22;24488;0.000;0.000;2024-03-25T05:18:27;23.40;40.50
38746;DHT22;24488;0.000;0.000;2024-03-25T05:20:52;23.40;40.50
38746;DHT22;24488;0.000;0.000;2024-03-25T05:23:18;23.40;40.50
38746;DHT22;24488;0.000;0.000;2024-03-25T05:25:43;23.40;40.10
38746;DHT22;24488;0.000;0.000;2024-03-25T05:28:09;23.40;40.50
38746;DHT22;24488;0.000;0.000;2024-03-25T05:30:35;23.40;40.60
38746;DHT22;24488;0.000;0.000;2024-03-25T05:33:00;23.40;40.60
38746;DHT22;24488;0.000;0.000;2024-03-25T05:35:26;23.40;40.10
38746;DHT22;24488;0.000;0.000;2024-03-25T05:37:52;23.40;40.60
38746;DHT22;24488;0.000;0.000;2024-03-25T05:40:18;23.40;40.50
38746;DHT22;24488;0.000;0.000;2024-03-25T05:42:47;23.40;40.50
38746;DHT22;24488;0.000;0.000;2024-03-25T05:45:12;23.40;40.00
38746;DHT22;24488;0.000;0.000;2024-03-25T05:47:38;23.40;40.50
38746;DHT22;24488;0.000;0.000;2024-03-25T05:50:03;23.40;40.50
38746;DHT22;24488;0.000;0.000;2024-03-25T05:52:31;23.40;40.50
38746;DHT22;24488;0.000;0.000;2024-03-25T05:54:57;23.40;40.10
38746;DHT22;24488;0.000;0.000;2024-03-25T05:57:23;23.40;40.60
38746;DHT22;24488;0.000;0.000;2024-03-25T05:59:48;23.40;40.60
38746;DHT22;24488;0.000;0.000;2024-03-25T06:02:14;23.30;40.50
38746;DHT22;24488;0.000;0.000;2024-03-25T06:04:39;23.30;40.10
38746;DHT22;24488;0.000;0.000;2024-03-25T06:07:05;23.40;40.60
38746;DHT22;24488;0.000;0.000;2024-03-25T06:09:31;23.40;40.60
38746;DHT22;24488;0.000;0.000;2024-03-25T06:11:56;23.40;40.50
38746;DHT22;24488;0.000;0.000;2024-03-25T06:14:22;23.40;40.50
38746;DHT22;24488;0.000;0.000;2024-03-25T06:16:47;23.30;40.00
38746;DHT22;24488;0.000;0.000;2024-03-25T06:19:13;23.40;40.50
38746;DHT22;24488;0.000;0.000;2024-03-25T06:21:38;23.40;40.50
38746;DHT22;24488;0.000;0.000;2024-03-25T06:24:04;24.30;40.90
38746;DHT22;24488;0.000;0.000;2024-03-25T06:26:30;23.30;40.10
38746;DHT22;24488;0.000;0.000;2024-03-25T06:28:55;23.30;40.50
38746;DHT22;24488;0.000;0.000;2024-03-25T06:31:21;23.30;40.60
38746;DHT22;24488;0.000;0.000;2024-03-25T06:34:05;23.30;40.60
38746;DHT22;24488;0.000;0.000;2024-03-25T06:36:42;23.20;40.10
38746;DHT22;24488;0.000;0.000;2024-03-25T06:39:09;23.30;41.20
38746;DHT22;24488;0.000;0.000;2024-03-25T06:41:34;23.30;40.60
38746;DHT22;24488;0.000;0.000;2024-03-25T06:44:00;23.20;40.60
38746;DHT22;24488;0.000;0.000;2024-03-25T06:46:25;23.20;40.20
38746;DHT22;24488;0.000;0.000;2024-03-25T06:48:51;23.20;40.60
38746;DHT22;24488;0.000;0.000;2024-03-25T06:51:19;23.20;40.60
38746;DHT22;24488;0.000;0.000;2024-03-25T06:53:45;23.20;40.60
38746;DHT22;24488;0.000;0.000;2024-03-25T06:56:10;23.20;40.10
38746;DHT22;24488;0.000;0.000;2024-03-25T06:58:36;23.30;40.50
38746;DHT22;24488;0.000;0.000;2024-03-25T07:01:05;23.30;40.40
38746;DHT22;24488;0.000;0.000;2024-03-25T07:03:37;23.40;41.00
38746;DHT22;24488;0.000;0.000;2024-03-25T07:06:03;23.40;40.00
38746;DHT22;24488;0.000;0.000;2024-03-25T07:08:28;23.40;40.40
38746;DHT22;24488;0.000;0.000;2024-03-25T07:10:55;23.40;40.40
38746;DHT22;24488;0.000;0.000;2024-03-25T07:13:21;23.40;40.40
38746;DHT22;24488;0.000;0.000;2024-03-25T07:15:47;23.40;39.90
38746;DHT22;24488;0.000;0.000;2024-03-25T07:18:12;23.50;40.40
38746;DHT22;24488;0.000;0.000;2024-03-25T07:20:38;23.50;40.40
38746;DHT22;24488;0.000;0.000;2024-03-25T07:23:04;23.50;40.40
38746;DHT22;24488;0.000;0.000;2024-03-25T07:25:30;23.50;40.00
38746;DHT22;24488;0.000;0.000;2024-03-25T07:27:56;23.50;40.40
38746;DHT22;24488;0.000;0.000;2024-03-25T07:30:21;23.50;40.50
38746;DHT22;24488;0.000;0.000;2024-03-25T07:32:49;23.50;40.40
38746;DHT22;24488;0.000;0.000;2024-03-25T07:35:15;23.50;39.90
38746;DHT22;24488;0.000;0.000;2024-03-25T07:37:42;23.50;40.40
38746;DHT22;24488;0.000;0.000;2024-03-25T07:40:08;23.50;40.40
38746;DHT22;24488;0.000;0.000;2024-03-25T07:42:35;23.50;40.40
38746;DHT22;24488;0.000;0.000;2024-03-25T07:45:01;23.50;39.90
38746;DHT22;24488;0.000;0.000;2024-03-25T07:47:27;23.50;40.40
38746;DHT22;24488;0.000;0.000;2024-03-25T07:49:52;23.50;40.40
38746;DHT22;24488;0.000;0.000;2024-03-25T07:52:18;23.50;40.40
38746;DHT22;24488;0.000;0.000;2024-03-25T07:54:44;23.50;39.90
38746;DHT22;24488;0.000;0.000;2024-03-25T07:57:09;23.50;40.40
38746;DHT22;24488;0.000;0.000;2024-03-25T07:59:35;23.50;40.40
38746;DHT22;24488;0.000;0.000;2024-03-25T08:02:00;23.60;40.40
38746;DHT22;24488;0.000;0.000;2024-03-25T08:04:26;23.60;40.00
38746;DHT22;24488;0.000;0.000;2024-03-25T08:06:51;23.50;40.40
38746;DHT22;24488;0.000;0.000;2024-03-25T08:09:17;23.60;40.40
38746;DHT22;24488;0.000;0.000;2024-03-25T08:11:43;23.60;40.40
38746;DHT22;24488;0.000;0.000;2024-03-25T08:14:11;23.50;40.40
38746;DHT22;24488;0.000;0.000;2024-03-25T08:16:37;23.60;40.00
38746;DHT22;24488;0.000;0.000;2024-03-25T08:19:03;23.60;40.40
38746;DHT22;24488;0.000;0.000;2024-03-25T08:21:28;23.60;40.40
38746;DHT22;24488;0.000;0.000;2024-03-25T08:23:54;23.60;40.40
38746;DHT22;24488;0.000;0.000;2024-03-25T08:26:19;23.60;39.90
38746;DHT22;24488;0.000;0.000;2024-03-25T08:28:45;23.60;40.40
38746;DHT22;24488;0.000;0.000;2024-03-25T08:31:10;23.60;40.40
38746;DHT22;24488;0.000;0.000;2024-03-25T08:33:36;23.60;40.40
38746;DHT22;24488;0.000;0.000;2024-03-25T08:36:01;23.60;39.90
38746;DHT22;24488;0.000;0.000;2024-03-25T08:38:28;23.60;40.40
38746;DHT22;24488;0.000;0.000;2024-03-25T08:40:54;23.60;40.40
38746;DHT22;24488;0.000;0.000;2024-03-25T08:43:19;23.60;40.40
38746;DHT22;24488;0.000;0.000;2024-03-25T08:45:45;23.60;39.90
38746;DHT22;24488;0.000;0.000;2024-03-25T08:48:11;23.60;40.40
38746;DHT22;24488;0.000;0.000;2024-03-25T08:50:37;23.60;40.40
38746;DHT22;24488;0.000;0.000;2024-03-25T08:53:03;23.60;40.30
38746;DHT22;24488;0.000;0.000;2024-03-25T08:55:29;23.60;39.90
38746;DHT22;24488;0.000;0.000;2024-03-25T08:57:54;23.60;40.40
38746;DHT22;24488;0.000;0.000;2024-03-25T09:00:20;23.60;40.30
38746;DHT22;24488;0.000;0.000;2024-03-25T09:02:46;23.60;40.30
38746;DHT22;24488;0.000;0.000;2024-03-25T09:05:11;23.60;39.90
38746;DHT22;24488;0.000;0.000;2024-03-25T09:07:39;23.60;40.40
38746;DHT22;24488;0.000;0.000;2024-03-25T09:10:04;23.50;40.30
38746;DHT22;24488;0.000;0.000;2024-03-25T09:12:49;23.50;40.40
38746;DHT22;24488;0.000;0.000;2024-03-25T09:15:14;23.50;40.00
38746;DHT22;24488;0.000;0.000;2024-03-25T09:17:40;23.50;40.40
38746;DHT22;24488;0.000;0.000;2024-03-25T09:20:06;23.50;40.50
38746;DHT22;24488;0.000;0.000;2024-03-25T09:22:46;23.50;40.50
38746;DHT22;24488;0.000;0.000;2024-03-25T09:25:14;23.40;40.00
38746;DHT22;24488;0.000;0.000;2024-03-25T09:27:40;23.50;40.50
38746;DHT22;24488;0.000;0.000;2024-03-25T09:30:06;23.40;40.50
38746;DHT22;24488;0.000;0.000;2024-03-25T09:32:34;23.40;40.50
38746;DHT22;24488;0.000;0.000;2024-03-25T09:35:00;23.50;40.00
38746;DHT22;24488;0.000;0.000;2024-03-25T09:37:25;23.50;40.40
38746;DHT22;24488;0.000;0.000;2024-03-25T09:39:52;23.50;40.40
38746;DHT22;24488;0.000;0.000;2024-03-25T09:42:41;23.50;40.30
38746;DHT22;24488;0.000;0.000;2024-03-25T09:45:12;23.50;39.80
38746;DHT22;24488;0.000;0.000;2024-03-25T09:47:40;23.60;40.40
38746;DHT22;24488;0.000;0.000;2024-03-25T09:50:06;23.50;40.30
38746;DHT22;24488;0.000;0.000;2024-03-25T09:52:33;23.60;40.30
38746;DHT22;24488;0.000;0.000;2024-03-25T09:54:59;23.60;39.80
38746;DHT22;24488;0.000;0.000;2024-03-25T09:57:25;23.60;40.30
38746;DHT22;24488;0.000;0.000;2024-03-25T09:59:51;23.60;40.30
38746;DHT22;24488;0.000;0.000;2024-03-25T10:02:16;23.60;40.30
38746;DHT22;24488;0.000;0.000;2024-03-25T10:04:45;23.70;39.80
38746;DHT22;24488;0.000;0.000;2024-03-25T10:07:12;23.60;40.30
38746;DHT22;24488;0.000;0.000;2024-03-25T10:09:46;23.60;40.30
38746;DHT22;24488;0.000;0.000;2024-03-25T10:12:12;23.60;40.30
38746;DHT22;24488;0.000;0.000;2024-03-25T10:14:39;23.60;39.80
38746;DHT22;24488;0.000;0.000;2024-03-25T10:17:05;23.60;40.30
38746;DHT22;24488;0.000;0.000;2024-03-25T10:19:32;23.60;40.30
38746;DHT22;24488;0.000;0.000;2024-03-25T10:22:05;23.70;40.30
38746;DHT22;24488;0.000;0.000;2024-03-25T10:24:44;23.70;39.90
38746;DHT22;24488;0.000;0.000;2024-03-25T10:27:11;23.60;40.30
38746;DHT22;24488;0.000;0.000;2024-03-25T10:29:43;23.70;40.30
38746;DHT22;24488;0.000;0.000;2024-03-25T10:32:08;23.60;40.30
38746;DHT22;24488;0.000;0.000;2024-03-25T10:34:34;23.70;39.80
38746;DHT22;24488;0.000;0.000;2024-03-25T10:37:00;23.70;40.30
38746;DHT22;24488;0.000;0.000;2024-03-25T10:39:27;24.70;40.70
38746;DHT22;24488;0.000;0.000;2024-03-25T10:41:56;23.70;40.20
38746;DHT22;24488;0.000;0.000;2024-03-25T10:44:23;23.70;40.30
38746;DHT22;24488;0.000;0.000;2024-03-25T10:46:54;23.60;39.80
38746;DHT22;24488;0.000;0.000;2024-03-25T10:49:38;23.70;40.30
38746;DHT22;24488;0.000;0.000;2024-03-25T10:52:16;23.70;40.30
38746;DHT22;24488;0.000;0.000;2024-03-25T10:54:46;23.70;39.80
38746;DHT22;24488;0.000;0.000;2024-03-25T10:57:12;23.70;40.30
38746;DHT22;24488;0.000;0.000;2024-03-25T10:59:38;23.70;40.30
38746;DHT22;24488;0.000;0.000;2024-03-25T11:02:07;23.60;40.20
38746;DHT22;24488;0.000;0.000;2024-03-25T11:04:33;23.70;39.80
38746;DHT22;24488;0.000;0.000;2024-03-25T11:09:34;23.70;40.20
38746;DHT22;24488;0.000;0.000;2024-03-25T11:11:59;23.70;40.20
38746;DHT22;24488;0.000;0.000;2024-03-25T11:16:54;23.70;39.80
38746;DHT22;24488;0.000;0.000;2024-03-25T11:19:20;23.70;40.20
38746;DHT22;24488;0.000;0.000;2024-03-25T11:21:46;23.60;40.20
38746;DHT22;24488;0.000;0.000;2024-03-25T11:24:12;23.80;40.30
38746;DHT22;24488;0.000;0.000;2024-03-25T11:26:41;23.70;39.70
38746;DHT22;24488;0.000;0.000;2024-03-25T11:29:07;23.70;40.20
38746;DHT22;24488;0.000;0.000;2024-03-25T11:31:33;23.70;40.20
38746;DHT22;24488;0.000;0.000;2024-03-25T11:34:05;23.70;40.20
38746;DHT22;24488;0.000;0.000;2024-03-25T11:36:31;23.70;39.70
38746;DHT22;24488;0.000;0.000;2024-03-25T11:39:03;23.70;40.20
38746;DHT22;24488;0.000;0.000;2024-03-25T11:41:31;23.70;40.20
38746;DHT22;24488;0.000;0.000;2024-03-25T11:43:57;23.70;40.20
38746;DHT22;24488;0.000;0.000;2024-03-25T11:46:26;23.70;39.70
38746;DHT22;24488;0.000;0.000;2024-03-25T11:48:52;23.70;40.30
38746;DHT22;24488;0.000;0.000;2024-03-25T11:51:18;23.70;40.20
38746;DHT22;24488;0.000;0.000;2024-03-25T11:53:44;23.80;40.30
38746;DHT22;24488;0.000;0.000;2024-03-25T11:56:13;23.70;39.70
38746;DHT22;24488;0.000;0.000;2024-03-25T11:58:39;23.70;40.20
38746;DHT22;24488;0.000;0.000;2024-03-25T12:01:05;23.70;40.20
38746;DHT22;24488;0.000;0.000;2024-03-25T12:03:30;23.70;40.20
38746;DHT22;24488;0.000;0.000;2024-03-25T12:05:56;23.70;39.70
38746;DHT22;24488;0.000;0.000;2024-03-25T12:08:22;23.70;40.20
38746;DHT22;24488;0.000;0.000;2024-03-25T12:10:51;23.70;40.20
38746;DHT22;24488;0.000;0.000;2024-03-25T12:13:36;23.70;40.20
38746;DHT22;24488;0.000;0.000;2024-03-25T12:16:06;23.70;39.70
38746;DHT22;24488;0.000;0.000;2024-03-25T12:18:33;23.70;40.20
38746;DHT22;24488;0.000;0.000;2024-03-25T12:21:00;23.70;40.10
38746;DHT22;24488;0.000;0.000;2024-03-25T12:23:29;23.70;40.20
38746;DHT22;24488;0.000;0.000;2024-03-25T12:25:56;23.70;39.70
38746;DHT22;24488;0.000;0.000;2024-03-25T12:28:22;23.70;40.20
38746;DHT22;24488;0.000;0.000;2024-03-25T12:30:51;23.70;40.20
38746;DHT22;24488;0.000;0.000;2024-03-25T12:33:18;23.70;40.20
38746;DHT22;24488;0.000;0.000;2024-03-25T12:35:48;23.70;39.70
38746;DHT22;24488;0.000;0.000;2024-03-25T12:38:24;23.70;40.10
38746;DHT22;24488;0.000;0.000;2024-03-25T12:40:54;23.70;40.10
38746;DHT22;24488;0.000;0.000;2024-03-25T12:43:19;23.70;40.20
38746;DHT22;24488;0.000;0.000;2024-03-25T12:45:45;23.70;39.70
38746;DHT22;24488;0.000;0.000;2024-03-25T12:48:11;23.70;40.10
38746;DHT22;24488;0.000;0.000;2024-03-25T12:50:37;23.70;40.10
38746;DHT22;24488;0.000;0.000;2024-03-25T12:53:02;23.70;40.10
38746;DHT22;24488;0.000;0.000;2024-03-25T12:55:29;23.70;39.70
38746;DHT22;24488;0.000;0.000;2024-03-25T12:57:55;23.70;40.10
38746;DHT22;24488;0.000;0.000;2024-03-25T13:00:20;23.70;40.10
38746;DHT22;24488;0.000;0.000;2024-03-25T13:02:46;23.70;40.10
38746;DHT22;24488;0.000;0.000;2024-03-25T13:05:11;23.70;39.70
38746;DHT22;24488;0.000;0.000;2024-03-25T13:07:37;23.70;40.10
38746;DHT22;24488;0.000;0.000;2024-03-25T13:10:02;23.70;40.10
38746;DHT22;24488;0.000;0.000;2024-03-25T13:12:30;23.70;40.10
38746;DHT22;24488;0.000;0.000;2024-03-25T13:14:56;23.70;39.70
38746;DHT22;24488;0.000;0.000;2024-03-25T13:17:21;23.70;40.10
38746;DHT22;24488;0.000;0.000;2024-03-25T13:19:47;23.70;40.10
38746;DHT22;24488;0.000;0.000;2024-03-25T13:22:13;23.70;40.10
38746;DHT22;24488;0.000;0.000;2024-03-25T13:24:38;23.70;39.60
38746;DHT22;24488;0.000;0.000;2024-03-25T13:27:04;23.70;40.10
38746;DHT22;24488;0.000;0.000;2024-03-25T13:29:30;23.70;40.10
38746;DHT22;24488;0.000;0.000;2024-03-25T13:31:56;23.80;40.10
38746;DHT22;24488;0.000;0.000;2024-03-25T13:34:22;23.70;40.10
38746;DHT22;24488;0.000;0.000;2024-03-25T13:36:47;23.70;39.60
38746;DHT22;24488;0.000;0.000;2024-03-25T13:39:13;23.70;40.10
38746;DHT22;24488;0.000;0.000;2024-03-25T13:41:38;23.80;40.10
38746;DHT22;24488;0.000;0.000;2024-03-25T13:44:04;23.70;40.10
38746;DHT22;24488;0.000;0.000;2024-03-25T13:46:29;23.70;39.60
38746;DHT22;24488;0.000;0.000;2024-03-25T13:48:55;23.70;40.10
38746;DHT22;24488;0.000;0.000;2024-03-25T13:51:20;23.70;40.10
38746;DHT22;24488;0.000;0.000;2024-03-25T13:53:46;23.70;40.10
38746;DHT22;24488;0.000;0.000;2024-03-25T13:56:12;23.70;39.60
38746;DHT22;24488;0.000;0.000;2024-03-25T13:58:37;23.70;40.10
38746;DHT22;24488;0.000;0.000;2024-03-25T14:01:03;23.70;40.00
38746;DHT22;24488;0.000;0.000;2024-03-25T14:03:28;23.70;40.10
38746;DHT22;24488;0.000;0.000;2024-03-25T14:05:54;23.70;39.60
38746;DHT22;24488;0.000;0.000;2024-03-25T14:08:19;23.70;40.00
38746;DHT22;24488;0.000;0.000;2024-03-25T14:10:45;23.70;40.00
38746;DHT22;24488;0.000;0.000;2024-03-25T14:13:10;23.70;40.00
38746;DHT22;24488;0.000;0.000;2024-03-25T14:15:36;23.70;39.60
38746;DHT22;24488;0.000;0.000;2024-03-25T14:18:02;23.70;40.00
38746;DHT22;24488;0.000;0.000;2024-03-25T14:20:27;23.70;40.00
38746;DHT22;24488;0.000;0.000;2024-03-25T14:22:53;23.70;40.00
38746;DHT22;24488;0.000;0.000;2024-03-25T14:25:18;23.70;39.60
38746;DHT22;24488;0.000;0.000;2024-03-25T14:27:45;23.80;40.10
38746;DHT22;24488;0.000;0.000;2024-03-25T14:30:10;23.70;40.00
38746;DHT22;24488;0.000;0.000;2024-03-25T14:32:36;23.70;40.00
38746;DHT22;24488;0.000;0.000;2024-03-25T14:35:05;23.70;39.60
38746;DHT22;24488;0.000;0.000;2024-03-25T14:37:32;23.70;40.00
38746;DHT22;24488;0.000;0.000;2024-03-25T14:39:57;23.70;40.10
38746;DHT22;24488;0.000;0.000;2024-03-25T14:42:24;23.70;40.00
38746;DHT22;24488;0.000;0.000;2024-03-25T14:44:50;23.70;39.50
38746;DHT22;24488;0.000;0.000;2024-03-25T14:47:15;23.70;40.00
38746;DHT22;24488;0.000;0.000;2024-03-25T14:49:41;23.70;40.00
38746;DHT22;24488;0.000;0.000;2024-03-25T14:52:06;23.80;40.00
38746;DHT22;24488;0.000;0.000;2024-03-25T14:54:33;23.70;39.60
38746;DHT22;24488;0.000;0.000;2024-03-25T14:56:59;23.80;40.10
38746;DHT22;24488;0.000;0.000;2024-03-25T14:59:26;23.80;40.10
38746;DHT22;24488;0.000;0.000;2024-03-25T15:01:52;23.70;40.00
38746;DHT22;24488;0.000;0.000;2024-03-25T15:04:18;23.70;40.00
38746;DHT22;24488;0.000;0.000;2024-03-25T15:06:43;23.70;39.50
38746;DHT22;24488;0.000;0.000;2024-03-25T15:09:09;23.70;40.00
38746;DHT22;24488;0.000;0.000;2024-03-25T15:11:34;23.70;40.00
38746;DHT22;24488;0.000;0.000;2024-03-25T15:14:00;23.70;40.00
38746;DHT22;24488;0.000;0.000;2024-03-25T15:16:27;23.70;39.60
38746;DHT22;24488;0.000;0.000;2024-03-25T15:18:52;23.70;40.00
38746;DHT22;24488;0.000;0.000;2024-03-25T15:21:18;23.70;40.00
38746;DHT22;24488;0.000;0.000;2024-03-25T15:23:43;23.70;40.00
38746;DHT22;24488;0.000;0.000;2024-03-25T15:26:09;23.70;39.50
38746;DHT22;24488;0.000;0.000;2024-03-25T15:28:35;23.70;40.00
38746;DHT22;24488;0.000;0.000;2024-03-25T15:31:00;23.70;40.00
38746;DHT22;24488;0.000;0.000;2024-03-25T15:33:26;23.70;40.00
38746;DHT22;24488;0.000;0.000;2024-03-25T15:35:52;23.70;39.50
38746;DHT22;24488;0.000;0.000;2024-03-25T15:38:17;23.80;40.10
38746;DHT22;24488;0.000;0.000;2024-03-25T15:40:43;23.70;40.00
38746;DHT22;24488;0.000;0.000;2024-03-25T15:43:11;23.80;40.00
38746;DHT22;24488;0.000;0.000;2024-03-25T15:45:37;23.70;39.50